sensor_id;sensor_type;location;lat;lon;timestamp;pressure;altitude;pressure_sealevel;temperature;humidity
70921;BME280;58572;48.110;19.838;2023-03-19T00:00:19;98155.56;;;4.48;69.96
70921;BME280;58572;48.110;19.838;2023-03-19T00:02:47;98162.22;;;4.58;68.08
70921;BME280;58572;48.110;19.838;2023-03-19T00:05:17;98163.81;;;4.30;69.79
70921;BME280;58572;48.110;19.838;2023-03-19T00:07:46;98108.72;;;3.74;69.96
70921;BME280;58572;48.110;19.838;2023-03-19T00:10:13;98171.75;;;4.25;69.95
70921;BME280;58572;48.110;19.838;2023-03-19T00:12:40;98173.75;;;4.18;70.35
70921;BME280;58572;48.110;19.838;2023-03-19T00:15:08;98048.44;;;3.35;70.28
70921;BME280;58572;48.110;19.838;2023-03-19T00:17:38;98175.84;;;4.04;71.41
70921;BME280;58572;48.110;19.838;2023-03-19T00:20:07;98171.28;;;4.05;70.67
70921;BME280;58572;48.110;19.838;2023-03-19T00:22:36;98155.03;;;4.11;70.63
70921;BME280;58572;48.110;19.838;2023-03-19T00:25:03;98173.16;;;4.16;70.74
70921;BME280;58572;48.110;19.838;2023-03-19T00:27:30;98179.47;;;4.10;70.68
70921;BME280;58572;48.110;19.838;2023-03-19T00:29:57;98168.13;;;4.08;70.88
70921;BME280;58572;48.110;19.838;2023-03-19T00:32:24;98172.69;;;3.96;70.82
70921;BME280;58572;48.110;19.838;2023-03-19T00:34:51;98165.19;;;3.98;70.84
70921;BME280;58572;48.110;19.838;2023-03-19T00:37:18;98193.50;;;3.89;70.66
70921;BME280;58572;48.110;19.838;2023-03-19T00:39:47;98123.13;;;3.80;70.72
70921;BME280;58572;48.110;19.838;2023-03-19T00:42:14;98166.38;;;4.02;70.78
70921;BME280;58572;48.110;19.838;2023-03-19T00:44:42;98163.56;;;4.08;70.57
70921;BME280;58572;48.110;19.838;2023-03-19T00:47:09;98193.50;;;3.89;71.22
70921;BME280;58572;48.110;19.838;2023-03-19T00:49:36;98164.63;;;3.84;71.66
70921;BME280;58572;48.110;19.838;2023-03-19T00:52:04;98156.56;;;3.84;70.80
70921;BME280;58572;48.110;19.838;2023-03-19T00:54:31;98164.59;;;3.72;71.21
70921;BME280;58572;48.110;19.838;2023-03-19T00:57:00;98158.28;;;3.67;71.47
70921;BME280;58572;48.110;19.838;2023-03-19T00:59:27;98155.13;;;3.58;71.64
70921;BME280;58572;48.110;19.838;2023-03-19T01:01:54;98160.97;;;3.67;71.82
70921;BME280;58572;48.110;19.838;2023-03-19T01:04:21;98061.22;;;3.10;71.67
70921;BME280;58572;48.110;19.838;2023-03-19T01:06:49;98151.16;;;3.72;71.23
70921;BME280;58572;48.110;19.838;2023-03-19T01:09:16;98148.13;;;3.57;71.30
70921;BME280;58572;48.110;19.838;2023-03-19T01:11:43;98142.75;;;3.80;69.75
70921;BME280;58572;48.110;19.838;2023-03-19T01:14:12;98150.81;;;4.04;68.26
70921;BME280;58572;48.110;19.838;2023-03-19T01:16:40;98147.53;;;3.78;70.12
70921;BME280;58572;48.110;19.838;2023-03-19T01:19:07;98098.00;;;3.09;71.55
70921;BME280;58572;48.110;19.838;2023-03-19T01:21:34;98144.59;;;3.45;71.78
70921;BME280;58572;48.110;19.838;2023-03-19T01:24:01;98059.75;;;3.26;70.50
70921;BME280;58572;48.110;19.838;2023-03-19T01:26:28;98143.44;;;3.76;69.61
70921;BME280;58572;48.110;19.838;2023-03-19T01:28:56;98104.25;;;3.33;70.75
70921;BME280;58572;48.110;19.838;2023-03-19T01:31:25;98145.09;;;3.89;69.59
70921;BME280;58572;48.110;19.838;2023-03-19T01:33:52;98140.06;;;3.80;70.41
70921;BME280;58572;48.110;19.838;2023-03-19T01:36:20;98147.19;;;3.87;69.69
70921;BME280;58572;48.110;19.838;2023-03-19T01:38:47;98147.66;;;3.60;70.38
70921;BME280;58572;48.110;19.838;2023-03-19T01:41:14;98080.84;;;3.10;70.77
70921;BME280;58572;48.110;19.838;2023-03-19T01:43:41;98147.78;;;3.65;70.03
70921;BME280;58572;48.110;19.838;2023-03-19T01:46:14;98144.50;;;3.63;70.86
70921;BME280;58572;48.110;19.838;2023-03-19T01:48:47;98138.53;;;3.61;68.57
70921;BME280;58572;48.110;19.838;2023-03-19T01:51:17;98095.31;;;3.09;71.29
70921;BME280;58572;48.110;19.838;2023-03-19T01:53:48;98138.16;;;3.34;71.55
70921;BME280;58572;48.110;19.838;2023-03-19T01:56:19;98139.22;;;3.45;71.32
70921;BME280;58572;48.110;19.838;2023-03-19T01:58:49;98101.94;;;3.60;67.32
70921;BME280;58572;48.110;19.838;2023-03-19T02:01:19;98149.84;;;3.40;69.96
70921;BME280;58572;48.110;19.838;2023-03-19T02:03:49;98157.09;;;3.09;72.13
70921;BME280;58572;48.110;19.838;2023-03-19T02:06:16;98109.66;;;3.03;71.29
70921;BME280;58572;48.110;19.838;2023-03-19T02:08:45;98150.88;;;3.39;70.88
70921;BME280;58572;48.110;19.838;2023-03-19T02:11:13;98075.63;;;3.15;70.42
70921;BME280;58572;48.110;19.838;2023-03-19T02:13:40;98029.06;;;2.80;68.21
70921;BME280;58572;48.110;19.838;2023-03-19T02:16:07;98108.75;;;3.09;71.12
70921;BME280;58572;48.110;19.838;2023-03-19T02:18:34;98139.09;;;3.40;70.77
70921;BME280;58572;48.110;19.838;2023-03-19T02:21:06;98025.88;;;3.25;66.63
70921;BME280;58572;48.110;19.838;2023-03-19T02:23:37;98139.72;;;3.89;67.82
70921;BME280;58572;48.110;19.838;2023-03-19T02:26:08;98062.78;;;3.88;63.98
70921;BME280;58572;48.110;19.838;2023-03-19T02:28:39;98140.63;;;3.59;67.95
70921;BME280;58572;48.110;19.838;2023-03-19T02:31:08;98156.94;;;3.34;70.23
70921;BME280;58572;48.110;19.838;2023-03-19T02:33:35;98144.38;;;3.81;65.93
70921;BME280;58572;48.110;19.838;2023-03-19T02:36:04;98149.75;;;3.70;66.29
70921;BME280;58572;48.110;19.838;2023-03-19T02:38:33;98152.22;;;3.60;67.51
70921;BME280;58572;48.110;19.838;2023-03-19T02:41:02;98137.09;;;3.05;70.11
70921;BME280;58572;48.110;19.838;2023-03-19T02:43:32;98158.81;;;3.34;70.19
70921;BME280;58572;48.110;19.838;2023-03-19T02:46:00;98143.91;;;3.84;66.58
70921;BME280;58572;48.110;19.838;2023-03-19T02:48:28;98148.25;;;3.97;66.82
70921;BME280;58572;48.110;19.838;2023-03-19T02:50:55;98151.63;;;3.93;65.96
70921;BME280;58572;48.110;19.838;2023-03-19T02:53:22;98152.44;;;4.05;64.45
70921;BME280;58572;48.110;19.838;2023-03-19T02:55:50;98073.00;;;3.09;68.05
70921;BME280;58572;48.110;19.838;2023-03-19T02:58:17;98151.41;;;3.71;65.59
70921;BME280;58572;48.110;19.838;2023-03-19T03:00:45;98152.09;;;3.78;65.22
70921;BME280;58572;48.110;19.838;2023-03-19T03:03:12;98069.56;;;3.43;63.84
70921;BME280;58572;48.110;19.838;2023-03-19T03:05:40;98145.78;;;3.72;67.91
70921;BME280;58572;48.110;19.838;2023-03-19T03:08:07;98148.00;;;4.10;64.53
70921;BME280;58572;48.110;19.838;2023-03-19T03:10:34;98148.81;;;4.11;66.01
70921;BME280;58572;48.110;19.838;2023-03-19T03:13:01;98146.84;;;4.30;61.96
70921;BME280;58572;48.110;19.838;2023-03-19T03:15:30;98144.84;;;4.02;63.53
70921;BME280;58572;48.110;19.838;2023-03-19T03:17:59;98150.47;;;3.89;63.81
70921;BME280;58572;48.110;19.838;2023-03-19T03:20:26;98148.38;;;3.91;63.57
70921;BME280;58572;48.110;19.838;2023-03-19T03:22:53;98148.94;;;4.16;63.14
70921;BME280;58572;48.110;19.838;2023-03-19T03:25:20;98137.38;;;4.27;60.83
70921;BME280;58572;48.110;19.838;2023-03-19T03:27:47;98150.94;;;4.09;62.55
70921;BME280;58572;48.110;19.838;2023-03-19T03:30:15;98013.44;;;3.00;63.10
70921;BME280;58572;48.110;19.838;2023-03-19T03:32:42;98155.25;;;3.98;62.49
70921;BME280;58572;48.110;19.838;2023-03-19T03:35:10;98145.81;;;4.19;61.41
70921;BME280;58572;48.110;19.838;2023-03-19T03:37:38;98156.78;;;3.82;64.17
70921;BME280;58572;48.110;19.838;2023-03-19T03:40:06;98163.38;;;2.73;68.44
70921;BME280;58572;48.110;19.838;2023-03-19T03:42:34;98165.78;;;3.65;63.87
70921;BME280;58572;48.110;19.838;2023-03-19T03:45:03;98159.69;;;4.04;61.91
70921;BME280;58572;48.110;19.838;2023-03-19T03:47:30;98155.25;;;3.87;62.49
70921;BME280;58572;48.110;19.838;2023-03-19T03:49:57;98068.28;;;3.23;63.76
70921;BME280;58572;48.110;19.838;2023-03-19T03:52:25;98029.38;;;2.30;67.20
70921;BME280;58572;48.110;19.838;2023-03-19T03:54:56;98111.53;;;2.06;69.81
70921;BME280;58572;48.110;19.838;2023-03-19T03:57:24;98160.94;;;2.53;70.84
70921;BME280;58572;48.110;19.838;2023-03-19T03:59:52;98158.19;;;2.90;70.35
70921;BME280;58572;48.110;19.838;2023-03-19T04:02:19;98074.56;;;2.75;66.02
70921;BME280;58572;48.110;19.838;2023-03-19T04:04:46;98154.19;;;3.64;63.40
70921;BME280;58572;48.110;19.838;2023-03-19T04:07:16;98155.84;;;3.65;66.77
70921;BME280;58572;48.110;19.838;2023-03-19T04:09:45;98153.81;;;3.37;66.42
70921;BME280;58572;48.110;19.838;2023-03-19T04:12:12;98152.06;;;3.43;67.46
70921;BME280;58572;48.110;19.838;2023-03-19T04:14:39;98022.44;;;2.94;63.69
70921;BME280;58572;48.110;19.838;2023-03-19T04:17:07;98147.88;;;3.70;62.94
70921;BME280;58572;48.110;19.838;2023-03-19T04:19:34;98156.00;;;3.29;65.29
70921;BME280;58572;48.110;19.838;2023-03-19T04:22:01;98041.22;;;2.94;62.44
70921;BME280;58572;48.110;19.838;2023-03-19T04:24:32;98152.00;;;3.84;61.66
70921;BME280;58572;48.110;19.838;2023-03-19T04:27:00;98023.53;;;3.16;61.21
70921;BME280;58572;48.110;19.838;2023-03-19T04:29:27;98150.94;;;3.85;61.74
70921;BME280;58572;48.110;19.838;2023-03-19T04:31:54;98079.88;;;2.63;65.63
70921;BME280;58572;48.110;19.838;2023-03-19T04:34:21;98159.75;;;2.31;70.03
70921;BME280;58572;48.110;19.838;2023-03-19T04:36:48;98155.72;;;2.22;72.85
70921;BME280;58572;48.110;19.838;2023-03-19T04:39:16;98149.41;;;2.35;72.93
70921;BME280;58572;48.110;19.838;2023-03-19T04:41:44;98035.50;;;1.64;72.62
70921;BME280;58572;48.110;19.838;2023-03-19T04:44:12;98144.16;;;2.58;72.71
70921;BME280;58572;48.110;19.838;2023-03-19T04:46:39;98150.34;;;2.59;72.63
70921;BME280;58572;48.110;19.838;2023-03-19T04:49:06;98151.06;;;2.66;72.20
70921;BME280;58572;48.110;19.838;2023-03-19T04:51:33;98152.16;;;2.46;72.84
70921;BME280;58572;48.110;19.838;2023-03-19T04:54:00;98143.78;;;2.54;72.57
70921;BME280;58572;48.110;19.838;2023-03-19T04:56:28;98132.59;;;2.58;71.99
70921;BME280;58572;48.110;19.838;2023-03-19T04:58:55;98140.63;;;3.06;70.00
70921;BME280;58572;48.110;19.838;2023-03-19T05:01:24;98136.16;;;3.41;67.05
70921;BME280;58572;48.110;19.838;2023-03-19T05:03:51;98131.28;;;3.97;62.47
70921;BME280;58572;48.110;19.838;2023-03-19T05:06:19;98069.38;;;2.62;68.16
70921;BME280;58572;48.110;19.838;2023-03-19T05:08:46;98138.63;;;3.01;69.68
70921;BME280;58572;48.110;19.838;2023-03-19T05:11:13;98134.50;;;3.17;67.98
70921;BME280;58572;48.110;19.838;2023-03-19T05:13:41;98134.53;;;3.40;67.92
70921;BME280;58572;48.110;19.838;2023-03-19T05:16:08;98138.81;;;3.18;70.39
70921;BME280;58572;48.110;19.838;2023-03-19T05:18:36;98139.34;;;2.78;71.98
70921;BME280;58572;48.110;19.838;2023-03-19T05:21:04;98139.66;;;3.00;71.78
70921;BME280;58572;48.110;19.838;2023-03-19T05:23:31;98132.47;;;3.77;64.19
70921;BME280;58572;48.110;19.838;2023-03-19T05:25:58;98133.97;;;3.85;63.09
70921;BME280;58572;48.110;19.838;2023-03-19T05:28:26;98135.00;;;3.49;65.08
70921;BME280;58572;48.110;19.838;2023-03-19T05:30:54;98101.25;;;2.40;70.93
70921;BME280;58572;48.110;19.838;2023-03-19T05:33:22;98149.16;;;2.36;72.76
70921;BME280;58572;48.110;19.838;2023-03-19T05:35:51;98134.94;;;2.84;71.57
70921;BME280;58572;48.110;19.838;2023-03-19T05:38:18;98096.34;;;3.50;63.93
70921;BME280;58572;48.110;19.838;2023-03-19T05:40:45;98087.81;;;3.53;66.28
70921;BME280;58572;48.110;19.838;2023-03-19T05:43:13;98142.06;;;2.90;68.98
70921;BME280;58572;48.110;19.838;2023-03-19T05:45:40;98135.44;;;3.23;65.83
70921;BME280;58572;48.110;19.838;2023-03-19T05:48:07;98139.34;;;3.62;65.18
70921;BME280;58572;48.110;19.838;2023-03-19T05:50:34;98146.34;;;3.39;66.26
70921;BME280;58572;48.110;19.838;2023-03-19T05:53:03;98149.91;;;3.22;69.58
70921;BME280;58572;48.110;19.838;2023-03-19T05:55:32;98148.91;;;3.46;70.06
70921;BME280;58572;48.110;19.838;2023-03-19T05:57:59;98145.78;;;3.72;69.52
70921;BME280;58572;48.110;19.838;2023-03-19T06:00:26;98153.97;;;3.77;69.91
70921;BME280;58572;48.110;19.838;2023-03-19T06:02:53;98160.53;;;3.81;69.58
70921;BME280;58572;48.110;19.838;2023-03-19T06:05:20;98155.03;;;4.00;69.13
70921;BME280;58572;48.110;19.838;2023-03-19T06:07:47;98174.19;;;4.50;66.42
70921;BME280;58572;48.110;19.838;2023-03-19T06:10:16;98122.41;;;3.61;66.55
70921;BME280;58572;48.110;19.838;2023-03-19T06:12:43;98171.03;;;4.06;63.91
70921;BME280;58572;48.110;19.838;2023-03-19T06:15:11;98168.94;;;3.97;63.41
70921;BME280;58572;48.110;19.838;2023-03-19T06:17:38;98166.38;;;4.02;66.26
70921;BME280;58572;48.110;19.838;2023-03-19T06:20:05;98133.06;;;3.79;67.20
70921;BME280;58572;48.110;19.838;2023-03-19T06:22:32;98015.94;;;3.48;64.34
70921;BME280;58572;48.110;19.838;2023-03-19T06:24:59;98175.78;;;4.63;65.10
70921;BME280;58572;48.110;19.838;2023-03-19T06:27:28;98175.88;;;4.79;64.12
70921;BME280;58572;48.110;19.838;2023-03-19T06:29:55;98200.91;;;4.80;65.67
70921;BME280;58572;48.110;19.838;2023-03-19T06:32:22;98168.97;;;4.72;64.29
70921;BME280;58572;48.110;19.838;2023-03-19T06:34:49;98188.44;;;5.02;61.51
70921;BME280;58572;48.110;19.838;2023-03-19T06:37:16;98192.91;;;4.57;64.77
70921;BME280;58572;48.110;19.838;2023-03-19T06:39:43;98108.97;;;3.61;66.63
70921;BME280;58572;48.110;19.838;2023-03-19T06:42:10;98198.88;;;4.12;67.63
70921;BME280;58572;48.110;19.838;2023-03-19T06:44:39;98193.72;;;4.97;65.26
70921;BME280;58572;48.110;19.838;2023-03-19T06:47:06;98191.88;;;4.34;67.16
70921;BME280;58572;48.110;19.838;2023-03-19T06:49:33;98100.06;;;3.96;66.78
70921;BME280;58572;48.110;19.838;2023-03-19T06:52:01;98186.25;;;4.88;63.90
70921;BME280;58572;48.110;19.838;2023-03-19T06:54:28;98183.06;;;4.62;66.43
70921;BME280;58572;48.110;19.838;2023-03-19T06:56:55;98183.59;;;4.76;64.57
70921;BME280;58572;48.110;19.838;2023-03-19T06:59:22;98184.06;;;5.13;62.25
70921;BME280;58572;48.110;19.838;2023-03-19T07:01:51;98167.06;;;5.12;62.46
70921;BME280;58572;48.110;19.838;2023-03-19T07:04:18;98158.34;;;5.84;59.35
70921;BME280;58572;48.110;19.838;2023-03-19T07:06:45;98169.97;;;6.01;57.70
70921;BME280;58572;48.110;19.838;2023-03-19T07:09:12;97995.81;;;4.26;60.25
70921;BME280;58572;48.110;19.838;2023-03-19T07:11:41;98170.53;;;6.59;53.94
70921;BME280;58572;48.110;19.838;2023-03-19T07:14:08;98171.25;;;6.32;56.02
70921;BME280;58572;48.110;19.838;2023-03-19T07:16:36;98181.97;;;6.66;54.17
70921;BME280;58572;48.110;19.838;2023-03-19T07:19:04;98171.78;;;6.73;55.64
70921;BME280;58572;48.110;19.838;2023-03-19T07:21:31;98174.63;;;6.83;55.23
70921;BME280;58572;48.110;19.838;2023-03-19T07:23:58;98184.94;;;6.09;59.48
70921;BME280;58572;48.110;19.838;2023-03-19T07:26:25;98179.50;;;6.64;55.69
70921;BME280;58572;48.110;19.838;2023-03-19T07:28:53;98182.56;;;7.17;54.60
70921;BME280;58572;48.110;19.838;2023-03-19T07:31:20;98183.34;;;6.90;54.09
70921;BME280;58572;48.110;19.838;2023-03-19T07:33:47;98186.72;;;7.02;55.10
70921;BME280;58572;48.110;19.838;2023-03-19T07:36:15;98180.94;;;6.94;54.26
70921;BME280;58572;48.110;19.838;2023-03-19T07:38:42;98182.34;;;6.96;55.53
70921;BME280;58572;48.110;19.838;2023-03-19T07:41:09;98175.09;;;8.20;49.75
70921;BME280;58572;48.110;19.838;2023-03-19T07:43:36;98184.16;;;7.66;52.67
70921;BME280;58572;48.110;19.838;2023-03-19T07:46:04;98049.72;;;7.35;51.76
70921;BME280;58572;48.110;19.838;2023-03-19T07:48:31;98176.50;;;8.27;52.70
70921;BME280;58572;48.110;19.838;2023-03-19T07:50:58;98173.63;;;7.38;52.53
70921;BME280;58572;48.110;19.838;2023-03-19T07:53:27;98167.81;;;8.25;47.87
70921;BME280;58572;48.110;19.838;2023-03-19T07:55:55;98165.47;;;8.86;48.27
70921;BME280;58572;48.110;19.838;2023-03-19T07:58:22;98171.47;;;8.04;51.83
70921;BME280;58572;48.110;19.838;2023-03-19T08:00:52;98092.97;;;8.46;49.32
70921;BME280;58572;48.110;19.838;2023-03-19T08:03:19;98001.75;;;8.10;45.31
70921;BME280;58572;48.110;19.838;2023-03-19T08:05:48;98149.69;;;8.68;48.76
70921;BME280;58572;48.110;19.838;2023-03-19T08:08:16;97924.50;;;7.92;46.53
70921;BME280;58572;48.110;19.838;2023-03-19T08:10:44;98145.22;;;9.19;48.10
70921;BME280;58572;48.110;19.838;2023-03-19T08:13:12;98150.94;;;9.18;47.72
70921;BME280;58572;48.110;19.838;2023-03-19T08:15:39;98038.63;;;9.24;46.69
70921;BME280;58572;48.110;19.838;2023-03-19T08:18:07;98073.06;;;10.00;41.67
70921;BME280;58572;48.110;19.838;2023-03-19T08:20:34;98140.09;;;10.50;43.30
70921;BME280;58572;48.110;19.838;2023-03-19T08:23:01;98140.66;;;10.52;44.31
70921;BME280;58572;48.110;19.838;2023-03-19T08:25:28;98053.84;;;10.71;40.96
70921;BME280;58572;48.110;19.838;2023-03-19T08:27:58;98125.56;;;11.78;43.83
70921;BME280;58572;48.110;19.838;2023-03-19T08:30:25;98134.13;;;12.25;40.43
70921;BME280;58572;48.110;19.838;2023-03-19T08:32:52;98131.69;;;13.37;38.24
70921;BME280;58572;48.110;19.838;2023-03-19T08:35:19;98138.84;;;13.33;40.47
70921;BME280;58572;48.110;19.838;2023-03-19T08:37:46;98133.25;;;12.29;36.49
70921;BME280;58572;48.110;19.838;2023-03-19T08:40:13;98134.41;;;11.94;34.73
70921;BME280;58572;48.110;19.838;2023-03-19T08:42:40;98136.38;;;13.56;35.70
70921;BME280;58572;48.110;19.838;2023-03-19T08:45:10;98132.75;;;12.99;35.44
70921;BME280;58572;48.110;19.838;2023-03-19T08:47:38;98098.78;;;12.67;34.89
70921;BME280;58572;48.110;19.838;2023-03-19T08:50:07;98130.84;;;13.61;33.17
70921;BME280;58572;48.110;19.838;2023-03-19T08:52:35;98125.22;;;12.91;34.43
70921;BME280;58572;48.110;19.838;2023-03-19T08:55:02;98119.88;;;13.42;32.39
70921;BME280;58572;48.110;19.838;2023-03-19T08:57:30;98131.72;;;11.89;33.28
70921;BME280;58572;48.110;19.838;2023-03-19T08:59:57;98119.94;;;12.75;33.35
70921;BME280;58572;48.110;19.838;2023-03-19T09:02:26;98136.00;;;13.01;33.85
70921;BME280;58572;48.110;19.838;2023-03-19T09:04:53;98013.59;;;11.12;34.56
70921;BME280;58572;48.110;19.838;2023-03-19T09:07:20;98135.28;;;13.14;34.52
70921;BME280;58572;48.110;19.838;2023-03-19T09:09:47;98128.03;;;12.33;32.54
70921;BME280;58572;48.110;19.838;2023-03-19T09:12:17;98124.66;;;14.34;34.11
70921;BME280;58572;48.110;19.838;2023-03-19T09:14:44;98119.59;;;14.41;34.33
70921;BME280;58572;48.110;19.838;2023-03-19T09:17:11;98123.75;;;13.92;30.51
70921;BME280;58572;48.110;19.838;2023-03-19T09:19:41;98110.31;;;15.47;32.24
70921;BME280;58572;48.110;19.838;2023-03-19T09:22:08;98124.91;;;15.06;30.91
70921;BME280;58572;48.110;19.838;2023-03-19T09:24:36;98121.72;;;15.26;31.19
70921;BME280;58572;48.110;19.838;2023-03-19T09:27:03;98143.16;;;13.16;30.59
70921;BME280;58572;48.110;19.838;2023-03-19T09:29:30;98126.44;;;14.11;32.01
70921;BME280;58572;48.110;19.838;2023-03-19T09:31:57;98096.75;;;14.92;31.46
70921;BME280;58572;48.110;19.838;2023-03-19T09:34:26;98031.28;;;15.76;31.98
70921;BME280;58572;48.110;19.838;2023-03-19T09:36:56;98121.50;;;15.37;31.38
70921;BME280;58572;48.110;19.838;2023-03-19T09:39:23;98108.63;;;12.87;31.20
70921;BME280;58572;48.110;19.838;2023-03-19T09:42:02;98109.44;;;14.88;29.61
70921;BME280;58572;48.110;19.838;2023-03-19T09:44:34;98054.81;;;16.79;28.54
70921;BME280;58572;48.110;19.838;2023-03-19T09:47:11;98103.94;;;16.18;28.47
70921;BME280;58572;48.110;19.838;2023-03-19T09:49:48;98111.47;;;16.66;30.34
70921;BME280;58572;48.110;19.838;2023-03-19T09:52:37;98108.31;;;16.59;27.83
70921;BME280;58572;48.110;19.838;2023-03-19T09:55:15;98104.34;;;17.39;29.79
70921;BME280;58572;48.110;19.838;2023-03-19T09:57:46;98098.50;;;17.06;26.64
70921;BME280;58572;48.110;19.838;2023-03-19T10:00:22;98062.31;;;17.21;29.78
70921;BME280;58572;48.110;19.838;2023-03-19T10:02:54;98101.16;;;16.49;27.25
70921;BME280;58572;48.110;19.838;2023-03-19T10:05:30;98109.50;;;15.82;30.05
70921;BME280;58572;48.110;19.838;2023-03-19T10:11:02;98092.22;;;17.49;26.56
70921;BME280;58572;48.110;19.838;2023-03-19T10:13:42;98090.88;;;16.64;26.53
70921;BME280;58572;48.110;19.838;2023-03-19T10:16:19;98094.91;;;14.46;28.49
70921;BME280;58572;48.110;19.838;2023-03-19T10:18:49;98099.66;;;13.94;29.23
70921;BME280;58572;48.110;19.838;2023-03-19T10:21:21;98080.53;;;16.21;28.23
70921;BME280;58572;48.110;19.838;2023-03-19T10:23:54;98058.81;;;15.71;27.04
70921;BME280;58572;48.110;19.838;2023-03-19T10:26:28;98077.16;;;17.03;27.38
70921;BME280;58572;48.110;19.838;2023-03-19T10:29:02;97945.06;;;16.56;28.38
70921;BME280;58572;48.110;19.838;2023-03-19T10:31:41;98072.78;;;16.14;28.50
70921;BME280;58572;48.110;19.838;2023-03-19T10:34:35;98063.69;;;14.88;30.75
70921;BME280;58572;48.110;19.838;2023-03-19T10:37:04;98068.91;;;16.95;25.88
70921;BME280;58572;48.110;19.838;2023-03-19T10:39:35;98065.06;;;17.56;28.52
70921;BME280;58572;48.110;19.838;2023-03-19T10:42:12;98054.25;;;19.50;26.44
70921;BME280;58572;48.110;19.838;2023-03-19T10:44:48;98063.44;;;17.55;24.30
70921;BME280;58572;48.110;19.838;2023-03-19T10:47:17;98053.72;;;18.01;24.99
70921;BME280;58572;48.110;19.838;2023-03-19T10:49:49;98057.72;;;16.43;28.52
70921;BME280;58572;48.110;19.838;2023-03-19T10:52:20;98032.03;;;16.70;26.11
70921;BME280;58572;48.110;19.838;2023-03-19T10:54:54;98037.75;;;19.00;26.45
70921;BME280;58572;48.110;19.838;2023-03-19T10:57:25;98046.31;;;16.18;26.15
70921;BME280;58572;48.110;19.838;2023-03-19T10:59:54;98038.75;;;18.66;26.22
70921;BME280;58572;48.110;19.838;2023-03-19T11:02:23;98016.53;;;19.00;22.91
70921;BME280;58572;48.110;19.838;2023-03-19T11:05:05;98024.88;;;19.33;24.41
70921;BME280;58572;48.110;19.838;2023-03-19T11:07:35;98025.63;;;19.75;25.09
70921;BME280;58572;48.110;19.838;2023-03-19T11:10:11;98032.56;;;20.15;24.56
70921;BME280;58572;48.110;19.838;2023-03-19T11:12:39;98001.41;;;16.45;26.34
70921;BME280;58572;48.110;19.838;2023-03-19T11:15:19;98024.00;;;17.77;25.07
70921;BME280;58572;48.110;19.838;2023-03-19T11:17:49;98013.19;;;19.69;25.19
70921;BME280;58572;48.110;19.838;2023-03-19T11:20:26;97933.69;;;16.72;23.55
70921;BME280;58572;48.110;19.838;2023-03-19T11:22:56;97995.75;;;20.11;24.61
70921;BME280;58572;48.110;19.838;2023-03-19T11:25:30;98012.22;;;19.11;21.21
70921;BME280;58572;48.110;19.838;2023-03-19T11:28:04;98015.91;;;16.37;26.06
70921;BME280;58572;48.110;19.838;2023-03-19T11:30:38;98007.94;;;16.27;25.53
70921;BME280;58572;48.110;19.838;2023-03-19T11:33:14;97999.75;;;17.36;25.31
70921;BME280;58572;48.110;19.838;2023-03-19T11:35:48;97995.56;;;19.08;22.98
70921;BME280;58572;48.110;19.838;2023-03-19T11:38:20;97996.66;;;17.63;24.48
70921;BME280;58572;48.110;19.838;2023-03-19T11:41:00;97994.84;;;18.31;23.92
70921;BME280;58572;48.110;19.838;2023-03-19T11:43:34;98001.06;;;17.30;24.66
70921;BME280;58572;48.110;19.838;2023-03-19T11:46:11;97998.47;;;17.07;24.29
70921;BME280;58572;48.110;19.838;2023-03-19T11:49:02;97966.78;;;18.76;22.91
70921;BME280;58572;48.110;19.838;2023-03-19T11:51:37;97993.31;;;16.40;24.47
70921;BME280;58572;48.110;19.838;2023-03-19T11:54:17;97984.25;;;16.97;23.92
70921;BME280;58572;48.110;19.838;2023-03-19T11:56:55;97979.09;;;16.95;24.47
70921;BME280;58572;48.110;19.838;2023-03-19T11:59:42;97977.91;;;17.48;22.67
70921;BME280;58572;48.110;19.838;2023-03-19T12:05:19;97948.47;;;17.57;23.97
70921;BME280;58572;48.110;19.838;2023-03-19T12:08:01;97918.00;;;17.07;24.19
70921;BME280;58572;48.110;19.838;2023-03-19T12:10:53;97929.56;;;19.44;24.16
70921;BME280;58572;48.110;19.838;2023-03-19T12:13:37;97945.44;;;17.41;23.44
70921;BME280;58572;48.110;19.838;2023-03-19T12:16:18;97946.06;;;17.73;23.37
70921;BME280;58572;48.110;19.838;2023-03-19T12:19:02;97934.88;;;18.16;21.92
70921;BME280;58572;48.110;19.838;2023-03-19T12:21:46;97947.91;;;17.08;24.28
70921;BME280;58572;48.110;19.838;2023-03-19T12:24:23;97927.94;;;19.76;22.39
70921;BME280;58572;48.110;19.838;2023-03-19T12:27:03;97856.66;;;15.85;24.23
70921;BME280;58572;48.110;19.838;2023-03-19T12:29:37;97931.16;;;18.41;21.46
70921;BME280;58572;48.110;19.838;2023-03-19T12:32:18;97932.59;;;18.77;24.08
70921;BME280;58572;48.110;19.838;2023-03-19T12:34:53;97924.72;;;19.08;22.54
70921;BME280;58572;48.110;19.838;2023-03-19T12:37:26;97914.03;;;19.40;21.59
70921;BME280;58572;48.110;19.838;2023-03-19T12:40:11;97914.69;;;18.62;21.87
70921;BME280;58572;48.110;19.838;2023-03-19T12:42:42;97910.41;;;19.93;20.27
70921;BME280;58572;48.110;19.838;2023-03-19T12:45:24;97917.63;;;17.43;23.54
70921;BME280;58572;48.110;19.838;2023-03-19T12:47:56;97912.69;;;16.93;24.45
70921;BME280;58572;48.110;19.838;2023-03-19T12:50:24;97907.47;;;17.26;24.24
70921;BME280;58572;48.110;19.838;2023-03-19T12:52:55;97791.56;;;17.33;24.24
70921;BME280;58572;48.110;19.838;2023-03-19T12:55:29;97895.34;;;19.91;23.80
70921;BME280;58572;48.110;19.838;2023-03-19T12:58:04;97891.88;;;18.62;22.88
70921;BME280;58572;48.110;19.838;2023-03-19T13:00:41;97887.63;;;19.51;22.39
70921;BME280;58572;48.110;19.838;2023-03-19T13:03:15;97881.53;;;19.79;26.18
70921;BME280;58572;48.110;19.838;2023-03-19T13:05:48;97892.41;;;19.75;23.60
70921;BME280;58572;48.110;19.838;2023-03-19T13:08:22;97890.91;;;18.07;23.95
70921;BME280;58572;48.110;19.838;2023-03-19T13:10:56;97887.06;;;18.00;24.88
70921;BME280;58572;48.110;19.838;2023-03-19T13:13:35;97878.03;;;19.69;25.10
70921;BME280;58572;48.110;19.838;2023-03-19T13:16:19;97876.31;;;18.36;24.09